createdAt,value
2022-12-31T00:01:40.890Z,9.69
2022-12-31T00:04:08.275Z,9.63
2022-12-31T00:06:35.959Z,9.59
2022-12-31T00:09:05.704Z,9.58
2022-12-31T00:11:35.561Z,9.48
2022-12-31T00:14:03.304Z,9.53
2022-12-31T00:16:33.309Z,9.55
2022-12-31T00:19:01.099Z,9.54
2022-12-31T00:21:29.919Z,9.57
2022-12-31T00:23:57.343Z,9.54
2022-12-31T00:26:26.654Z,9.54
2022-12-31T00:28:56.297Z,9.57
2022-12-31T00:31:25.382Z,9.64
2022-12-31T00:33:55.858Z,9.58
2022-12-31T00:36:24.692Z,9.64
2022-12-31T00:38:55.176Z,9.51
2022-12-31T00:41:22.676Z,9.59
2022-12-31T00:43:51.106Z,9.63
2022-12-31T00:46:19.887Z,9.64
2022-12-31T00:48:47.503Z,9.65
2022-12-31T00:51:18.005Z,9.65
2022-12-31T00:53:45.533Z,9.66
2022-12-31T00:56:14.917Z,9.64
2022-12-31T00:58:42.622Z,9.70
2022-12-31T01:01:10.847Z,9.77
2022-12-31T01:03:41.396Z,9.81
2022-12-31T01:06:09.308Z,9.78
2022-12-31T01:08:36.955Z,9.80
2022-12-31T01:11:28.986Z,9.81
2022-12-31T01:13:58.764Z,9.74
2022-12-31T01:16:27.998Z,9.69
2022-12-31T01:18:58.824Z,9.67
2022-12-31T01:21:27.444Z,9.57
2022-12-31T01:23:54.981Z,9.65
2022-12-31T01:26:22.324Z,9.61
2022-12-31T01:28:52.557Z,9.63
2022-12-31T01:31:21.399Z,9.52
2022-12-31T01:33:49.098Z,9.63
2022-12-31T01:36:25.227Z,9.67
2022-12-31T01:38:53.659Z,9.64
2022-12-31T01:41:23.300Z,9.66
2022-12-31T01:43:56.004Z,9.68
2022-12-31T01:46:29.245Z,9.59
2022-12-31T01:49:00.687Z,9.59
2022-12-31T01:51:33.281Z,9.56
2022-12-31T01:54:02.825Z,9.59
2022-12-31T01:56:29.872Z,9.56
2022-12-31T01:58:59.581Z,9.44
2022-12-31T02:01:29.396Z,9.47
2022-12-31T02:03:57.694Z,9.40
2022-12-31T02:06:33.892Z,9.32
2022-12-31T02:09:01.324Z,9.33
2022-12-31T02:11:30.326Z,9.23
2022-12-31T02:14:00.500Z,9.24
2022-12-31T02:16:34.555Z,9.20
2022-12-31T02:19:26.709Z,9.19
2022-12-31T02:22:03.699Z,9.05
2022-12-31T02:25:05.854Z,9.00
2022-12-31T02:27:50.930Z,9.00
2022-12-31T02:30:20.620Z,8.89
2022-12-31T02:33:02.939Z,8.77
2022-12-31T02:35:33.336Z,8.81
2022-12-31T02:38:05.467Z,8.91
2022-12-31T02:40:39.348Z,8.87
2022-12-31T02:43:07.916Z,8.86
2022-12-31T02:45:43.455Z,8.83
2022-12-31T02:48:28.188Z,8.78
2022-12-31T02:51:06.423Z,8.76
2022-12-31T02:53:57.079Z,8.72
2022-12-31T02:56:30.813Z,8.80
2022-12-31T02:59:52.495Z,8.79
2022-12-31T03:02:26.629Z,8.84
2022-12-31T03:04:56.299Z,8.87
2022-12-31T03:07:29.336Z,8.78
2022-12-31T03:09:56.508Z,8.78
2022-12-31T03:12:45.436Z,8.80
2022-12-31T03:15:20.533Z,8.88
2022-12-31T03:17:54.647Z,8.90
2022-12-31T03:20:46.048Z,8.97
2022-12-31T03:23:16.917Z,9.00
2022-12-31T03:25:44.618Z,8.94
2022-12-31T03:28:13.828Z,8.93
2022-12-31T03:30:42.455Z,8.91
2022-12-31T03:33:11.008Z,8.91
2022-12-31T03:35:42.048Z,8.94
2022-12-31T03:38:09.553Z,8.89
2022-12-31T03:40:39.484Z,8.95
2022-12-31T03:43:06.934Z,8.97
2022-12-31T03:45:34.617Z,8.94
2022-12-31T03:48:02.155Z,8.92
2022-12-31T03:50:30.483Z,8.94
2022-12-31T03:52:57.890Z,8.96
2022-12-31T03:55:25.006Z,8.99
2022-12-31T03:57:52.405Z,9.02
2022-12-31T04:00:22.134Z,9.05
2022-12-31T04:02:51.011Z,9.01
2022-12-31T04:05:19.083Z,9.00
2022-12-31T04:07:48.377Z,9.08
2022-12-31T04:10:17.240Z,9.16
2022-12-31T04:12:44.270Z,9.18
2022-12-31T04:15:16.935Z,9.25
2022-12-31T04:17:44.259Z,9.28
2022-12-31T04:20:11.913Z,9.35
2022-12-31T04:22:39.418Z,9.32
2022-12-31T04:25:11.392Z,9.30
2022-12-31T04:27:40.014Z,9.30
2022-12-31T04:30:08.312Z,9.28
2022-12-31T04:32:35.788Z,9.26
2022-12-31T04:35:06.701Z,9.25
2022-12-31T04:37:36.112Z,9.28
2022-12-31T04:40:06.165Z,9.37
2022-12-31T04:42:36.338Z,9.39
2022-12-31T04:45:05.319Z,9.33
2022-12-31T04:47:32.648Z,9.25
2022-12-31T04:49:59.599Z,9.35
2022-12-31T04:52:26.787Z,9.35
2022-12-31T04:54:53.751Z,9.28
2022-12-31T04:57:21.094Z,9.20
2022-12-31T04:59:49.399Z,9.22
2022-12-31T05:02:16.666Z,9.23
2022-12-31T05:04:43.965Z,9.26
2022-12-31T05:07:11.122Z,9.33
2022-12-31T05:09:38.054Z,9.42
2022-12-31T05:12:07.971Z,9.44
2022-12-31T05:14:34.788Z,9.42
2022-12-31T05:17:03.485Z,9.45
2022-12-31T05:19:30.486Z,9.50
2022-12-31T05:22:18.009Z,9.59
2022-12-31T05:24:45.113Z,9.71
2022-12-31T05:27:13.528Z,9.70
2022-12-31T05:29:40.413Z,9.70
2022-12-31T05:32:08.958Z,9.67
2022-12-31T05:34:35.847Z,9.65
2022-12-31T05:37:03.140Z,9.61
2022-12-31T05:39:30.218Z,9.66
2022-12-31T05:41:57.383Z,9.66
2022-12-31T05:44:24.353Z,9.68
2022-12-31T05:46:51.633Z,9.77
2022-12-31T05:49:20.145Z,9.85
2022-12-31T05:51:47.366Z,9.97
2022-12-31T05:54:17.436Z,10.00
2022-12-31T05:56:44.837Z,9.94
2022-12-31T05:59:12.004Z,9.95
2022-12-31T06:01:39.356Z,9.92
2022-12-31T06:04:10.463Z,9.86
2022-12-31T06:06:39.262Z,9.90
2022-12-31T06:09:06.254Z,9.88
2022-12-31T06:11:35.238Z,9.88
2022-12-31T06:14:03.081Z,9.88
2022-12-31T06:16:31.088Z,9.91
2022-12-31T06:18:57.997Z,9.94
2022-12-31T06:21:25.289Z,9.92
2022-12-31T06:23:53.557Z,9.90
2022-12-31T06:26:23.590Z,9.94
2022-12-31T06:28:53.976Z,9.98
2022-12-31T06:31:21.342Z,10.05
2022-12-31T06:33:48.468Z,10.05
2022-12-31T06:36:16.561Z,10.02
2022-12-31T06:38:44.168Z,10.01
2022-12-31T06:41:16.822Z,9.90
2022-12-31T06:43:43.834Z,9.93
2022-12-31T06:46:13.033Z,9.95
2022-12-31T06:48:42.844Z,9.98
2022-12-31T06:51:16.942Z,10.04
2022-12-31T06:53:45.717Z,10.06
2022-12-31T06:56:20.049Z,10.05
2022-12-31T06:58:47.922Z,10.06
2022-12-31T07:01:37.179Z,10.10
2022-12-31T07:04:28.369Z,10.25
2022-12-31T07:07:03.759Z,10.20
2022-12-31T07:09:40.439Z,10.24
2022-12-31T07:12:20.014Z,10.21
2022-12-31T07:14:54.895Z,10.21
2022-12-31T07:17:35.106Z,10.26
2022-12-31T07:20:16.414Z,10.27
2022-12-31T07:22:44.196Z,10.26
2022-12-31T07:25:14.478Z,10.30
2022-12-31T07:28:16.987Z,10.38
2022-12-31T07:30:52.825Z,10.47
2022-12-31T07:33:38.212Z,10.46
2022-12-31T07:36:20.847Z,10.52
2022-12-31T07:38:55.088Z,10.56
2022-12-31T07:41:37.174Z,10.48
2022-12-31T07:44:16.101Z,10.45
2022-12-31T07:46:54.852Z,10.48
2022-12-31T07:49:25.289Z,10.41
2022-12-31T07:51:59.022Z,10.44
2022-12-31T07:54:29.606Z,10.39
2022-12-31T07:56:56.496Z,10.40
2022-12-31T07:59:40.037Z,10.47
2022-12-31T08:02:18.400Z,10.51
2022-12-31T08:04:54.472Z,10.60
2022-12-31T08:07:30.384Z,10.70
2022-12-31T08:10:04.014Z,10.79
2022-12-31T08:12:34.823Z,10.91
2022-12-31T08:15:12.194Z,11.15
2022-12-31T08:17:39.366Z,11.87
2022-12-31T08:20:07.678Z,12.23
2022-12-31T08:22:55.650Z,12.71
2022-12-31T08:25:30.156Z,13.03
2022-12-31T08:28:07.062Z,13.13
2022-12-31T08:30:44.096Z,12.83
2022-12-31T08:33:17.670Z,12.38
2022-12-31T08:36:00.345Z,12.17
2022-12-31T08:38:33.193Z,12.00
2022-12-31T08:41:09.378Z,11.96
2022-12-31T08:43:51.778Z,11.94
2022-12-31T08:46:28.209Z,11.94
2022-12-31T08:48:55.624Z,12.03
2022-12-31T08:51:29.768Z,12.22
2022-12-31T08:53:57.456Z,12.44
2022-12-31T08:56:30.647Z,12.35
2022-12-31T08:59:10.948Z,12.41
2022-12-31T09:02:02.017Z,12.39
2022-12-31T09:04:44.474Z,12.26
2022-12-31T09:07:22.954Z,12.19
2022-12-31T09:10:03.215Z,12.24
2022-12-31T09:12:37.989Z,12.35
2022-12-31T09:15:15.548Z,12.39
2022-12-31T09:17:46.367Z,12.35
2022-12-31T09:20:16.823Z,12.36
2022-12-31T09:22:55.636Z,12.42
2022-12-31T09:25:24.050Z,12.37
2022-12-31T09:28:06.111Z,12.34
2022-12-31T09:30:42.276Z,12.30
2022-12-31T09:33:16.711Z,12.36
2022-12-31T09:35:53.737Z,12.41
2022-12-31T09:38:28.698Z,12.46
2022-12-31T09:41:24.131Z,12.64
2022-12-31T09:44:29.763Z,12.74
2022-12-31T09:47:23.826Z,12.85
2022-12-31T09:50:39.230Z,13.00
2022-12-31T09:53:34.683Z,13.23
2022-12-31T09:56:10.992Z,13.35
2022-12-31T09:58:44.852Z,13.45
2022-12-31T10:01:32.280Z,13.46
2022-12-31T10:04:33.717Z,13.41
2022-12-31T10:07:15.871Z,13.47
2022-12-31T10:10:01.497Z,13.50
2022-12-31T10:12:55.262Z,13.45
2022-12-31T10:15:46.583Z,13.48
2022-12-31T10:18:29.197Z,13.62
2022-12-31T10:21:17.234Z,13.72
2022-12-31T10:24:05.144Z,13.76
2022-12-31T10:27:03.565Z,13.70
2022-12-31T10:29:42.096Z,13.66
2022-12-31T10:32:17.228Z,13.61
2022-12-31T10:35:13.729Z,13.61
2022-12-31T10:37:46.727Z,13.73
2022-12-31T10:40:29.397Z,13.84
2022-12-31T10:43:32.003Z,14.19
2022-12-31T10:46:36.168Z,14.27
2022-12-31T10:49:35.491Z,14.17
2022-12-31T10:52:58.317Z,14.36
2022-12-31T10:56:01.352Z,14.47
2022-12-31T10:59:14.555Z,14.41
2022-12-31T11:01:49.412Z,14.30
2022-12-31T11:05:05.481Z,14.39
2022-12-31T11:08:02.746Z,14.51
2022-12-31T11:10:56.871Z,14.59
2022-12-31T11:13:57.796Z,14.65
2022-12-31T11:16:44.876Z,14.67
2022-12-31T11:19:19.133Z,14.67
2022-12-31T11:21:57.277Z,14.55
2022-12-31T11:24:38.815Z,14.42
2022-12-31T11:27:23.347Z,14.34
2022-12-31T11:30:07.040Z,14.24
2022-12-31T11:32:48.376Z,14.24
2022-12-31T11:35:23.173Z,14.31
2022-12-31T11:37:54.082Z,14.34
2022-12-31T11:40:43.825Z,14.29
2022-12-31T11:43:25.985Z,14.32
2022-12-31T11:46:29.674Z,14.27
2022-12-31T11:49:13.291Z,14.28
2022-12-31T11:52:06.243Z,14.46
2022-12-31T11:54:54.147Z,14.67
2022-12-31T11:57:27.088Z,14.71
2022-12-31T11:59:58.889Z,14.74
2022-12-31T12:02:32.925Z,14.73
2022-12-31T12:05:08.479Z,14.72
2022-12-31T12:07:37.732Z,14.75
2022-12-31T12:10:17.669Z,14.77
2022-12-31T12:12:44.803Z,14.82
2022-12-31T12:15:20.421Z,14.86
2022-12-31T12:17:52.692Z,14.86
2022-12-31T12:20:26.648Z,14.90
2022-12-31T12:22:56.328Z,14.88
2022-12-31T12:25:25.715Z,14.81
2022-12-31T12:27:53.943Z,14.81
2022-12-31T12:30:24.779Z,14.78
2022-12-31T12:32:54.130Z,14.76
2022-12-31T12:35:26.106Z,14.77
2022-12-31T12:38:01.502Z,14.82
2022-12-31T12:40:33.619Z,14.88
2022-12-31T12:43:02.527Z,14.94
2022-12-31T12:45:42.323Z,14.97
2022-12-31T12:48:30.781Z,14.94
2022-12-31T12:50:58.301Z,14.89
2022-12-31T12:53:40.828Z,14.83
2022-12-31T12:56:18.934Z,14.75
2022-12-31T12:58:57.311Z,14.80
2022-12-31T13:01:36.781Z,14.80
2022-12-31T13:04:34.005Z,14.80
2022-12-31T13:07:21.896Z,14.65
2022-12-31T13:10:04.032Z,14.58
2022-12-31T13:13:13.699Z,14.57
2022-12-31T13:15:34.021Z,14.52
2022-12-31T13:18:13.210Z,14.50
2022-12-31T13:20:43.261Z,14.50
2022-12-31T13:23:23.295Z,14.52
2022-12-31T13:26:04.298Z,14.48
2022-12-31T13:28:33.388Z,14.50
2022-12-31T13:31:06.500Z,14.44
2022-12-31T13:33:41.045Z,14.39
2022-12-31T13:36:11.556Z,14.27
2022-12-31T13:38:42.083Z,14.18
2022-12-31T13:41:16.851Z,14.19
2022-12-31T13:43:54.561Z,14.21
2022-12-31T13:46:38.867Z,14.18
2022-12-31T13:49:16.342Z,14.25
2022-12-31T13:51:46.926Z,14.21
2022-12-31T13:54:30.747Z,14.21
2022-12-31T13:57:02.491Z,14.18
2022-12-31T13:59:35.335Z,14.18
2022-12-31T14:02:17.053Z,14.11
2022-12-31T14:04:50.902Z,14.10
2022-12-31T14:07:21.478Z,14.18
2022-12-31T14:09:49.092Z,14.21
2022-12-31T14:12:32.084Z,14.13
2022-12-31T14:15:09.252Z,14.04
2022-12-31T14:17:42.577Z,13.96
2022-12-31T14:20:23.466Z,13.92
2022-12-31T14:22:57.884Z,13.92
2022-12-31T14:25:29.307Z,13.98
2022-12-31T14:27:59.170Z,13.97
2022-12-31T14:30:30.978Z,13.88
2022-12-31T14:33:12.147Z,13.81
2022-12-31T14:35:52.222Z,13.70
2022-12-31T14:38:32.421Z,13.73
2022-12-31T14:41:12.655Z,13.70
2022-12-31T14:43:51.222Z,13.74
2022-12-31T14:46:31.375Z,13.69
2022-12-31T14:49:13.544Z,13.69
2022-12-31T14:51:42.265Z,13.70
2022-12-31T14:54:28.919Z,13.68
2022-12-31T14:56:58.309Z,13.67
2022-12-31T14:59:28.249Z,13.69
2022-12-31T15:01:56.948Z,13.67
2022-12-31T15:04:42.165Z,13.70
2022-12-31T15:07:18.930Z,13.63
2022-12-31T15:10:07.553Z,13.55
2022-12-31T15:12:49.361Z,13.50
2022-12-31T15:15:36.020Z,13.45
2022-12-31T15:18:33.844Z,13.42
2022-12-31T15:21:34.280Z,13.40
2022-12-31T15:24:13.848Z,13.40
2022-12-31T15:26:49.429Z,13.41
2022-12-31T15:29:27.128Z,13.46
2022-12-31T15:31:58.964Z,13.42
2022-12-31T15:34:30.962Z,13.37
2022-12-31T15:37:02.587Z,13.31
2022-12-31T15:39:42.021Z,13.30
2022-12-31T15:42:40.032Z,13.30
2022-12-31T15:45:18.664Z,13.31
2022-12-31T15:47:48.131Z,13.35
2022-12-31T15:50:18.254Z,13.39
2022-12-31T15:52:50.454Z,13.37
2022-12-31T15:55:26.408Z,13.35
2022-12-31T15:57:58.543Z,13.35
2022-12-31T16:00:34.839Z,13.31
2022-12-31T16:03:02.590Z,13.31
2022-12-31T16:05:35.199Z,13.33
2022-12-31T16:08:02.216Z,13.28
2022-12-31T16:10:44.204Z,13.23
2022-12-31T16:13:20.021Z,13.25
2022-12-31T16:15:51.854Z,13.24
2022-12-31T16:18:23.008Z,13.23
2022-12-31T16:20:51.942Z,13.22
2022-12-31T16:23:23.798Z,13.27
2022-12-31T16:25:55.159Z,13.38
2022-12-31T16:28:26.232Z,13.38
2022-12-31T16:30:59.153Z,13.35
2022-12-31T16:33:26.547Z,13.24
2022-12-31T16:35:59.427Z,13.21
2022-12-31T16:38:32.327Z,13.29
2022-12-31T16:41:18.543Z,13.37
2022-12-31T16:43:49.589Z,13.39
2022-12-31T16:46:20.668Z,13.41
2022-12-31T16:48:49.922Z,13.46
2022-12-31T16:51:24.290Z,13.50
2022-12-31T16:53:53.601Z,13.56
2022-12-31T16:56:30.143Z,13.53
2022-12-31T16:59:02.454Z,13.49
2022-12-31T17:01:32.543Z,13.44
2022-12-31T17:04:08.232Z,13.26
2022-12-31T17:06:39.330Z,13.41
2022-12-31T17:09:14.454Z,13.25
2022-12-31T17:11:50.685Z,13.24
2022-12-31T17:14:19.625Z,13.26
2022-12-31T17:17:02.230Z,13.26
2022-12-31T17:19:37.766Z,13.31
2022-12-31T17:22:11.371Z,13.38
2022-12-31T17:24:40.500Z,13.40
2022-12-31T17:27:10.622Z,13.40
2022-12-31T17:29:45.940Z,13.36
2022-12-31T17:32:35.763Z,13.30
2022-12-31T17:35:27.509Z,13.22
2022-12-31T17:37:54.801Z,13.27
2022-12-31T17:40:52.617Z,13.22
2022-12-31T17:43:23.703Z,13.12
2022-12-31T17:45:52.829Z,13.17
2022-12-31T17:48:23.112Z,13.18
2022-12-31T17:50:51.887Z,13.18
2022-12-31T17:53:19.709Z,13.15
2022-12-31T17:55:49.702Z,13.12
2022-12-31T17:58:29.251Z,13.11
2022-12-31T18:00:58.893Z,13.17
2022-12-31T18:03:31.248Z,13.14
2022-12-31T18:05:58.222Z,13.20
2022-12-31T18:08:25.430Z,13.14
2022-12-31T18:10:55.227Z,13.10
2022-12-31T18:13:23.951Z,13.00
2022-12-31T18:15:52.875Z,12.94
2022-12-31T18:18:26.328Z,12.91
2022-12-31T18:20:56.602Z,12.89
2022-12-31T18:23:28.126Z,12.87
2022-12-31T18:25:57.370Z,12.92
2022-12-31T18:28:27.016Z,12.92
2022-12-31T18:30:54.043Z,12.91
2022-12-31T18:33:25.007Z,13.00
2022-12-31T18:36:09.510Z,13.06
2022-12-31T18:38:38.028Z,13.07
2022-12-31T18:41:06.266Z,13.03
2022-12-31T18:43:33.505Z,13.07
2022-12-31T18:46:00.551Z,13.06
2022-12-31T18:48:37.242Z,13.10
2022-12-31T18:51:10.168Z,13.02
2022-12-31T18:53:44.459Z,12.95
2022-12-31T18:56:17.910Z,12.86
2022-12-31T18:58:48.496Z,12.81
2022-12-31T19:01:29.338Z,12.79
2022-12-31T19:04:00.727Z,12.69
2022-12-31T19:06:33.033Z,12.74
2022-12-31T19:09:01.173Z,12.68
2022-12-31T19:11:28.433Z,12.69
2022-12-31T19:13:57.456Z,12.69
2022-12-31T19:16:24.695Z,12.69
2022-12-31T19:18:54.118Z,12.69
2022-12-31T19:21:23.761Z,12.70
2022-12-31T19:23:51.541Z,12.73
2022-12-31T19:26:25.279Z,12.66
2022-12-31T19:28:55.711Z,12.63
2022-12-31T19:31:22.626Z,12.53
2022-12-31T19:33:52.401Z,12.46
2022-12-31T19:36:22.061Z,12.32
2022-12-31T19:38:49.304Z,12.18
2022-12-31T19:41:18.501Z,12.12
2022-12-31T19:43:48.789Z,12.02
2022-12-31T19:46:17.285Z,11.93
2022-12-31T19:48:45.494Z,11.94
2022-12-31T19:51:16.625Z,11.91
2022-12-31T19:53:46.025Z,11.85
2022-12-31T19:56:14.585Z,11.83
2022-12-31T19:58:44.835Z,11.76
2022-12-31T20:01:21.913Z,11.71
2022-12-31T20:03:52.109Z,11.64
2022-12-31T20:06:22.003Z,11.55
2022-12-31T20:08:53.044Z,11.50
2022-12-31T20:11:23.840Z,11.44
2022-12-31T20:13:56.487Z,11.44
2022-12-31T20:16:26.998Z,11.41
2022-12-31T20:18:54.463Z,11.32
2022-12-31T20:21:23.477Z,11.29
2022-12-31T20:23:53.760Z,11.23
2022-12-31T20:26:22.453Z,11.14
2022-12-31T20:28:49.686Z,11.06
2022-12-31T20:31:18.697Z,11.03
2022-12-31T20:33:46.466Z,10.98
2022-12-31T20:36:14.924Z,10.93
2022-12-31T20:38:43.374Z,10.95
2022-12-31T20:41:13.444Z,10.92
2022-12-31T20:43:41.154Z,10.94
2022-12-31T20:46:15.636Z,10.98
2022-12-31T20:48:46.522Z,11.06
2022-12-31T20:51:16.379Z,11.11
2022-12-31T20:53:46.687Z,11.06
2022-12-31T20:56:15.700Z,11.05
2022-12-31T20:58:44.969Z,10.97
2022-12-31T21:01:12.555Z,10.94
2022-12-31T21:06:31.022Z,10.96
2022-12-31T21:09:00.450Z,10.94
2022-12-31T21:11:50.509Z,10.86
2022-12-31T21:14:20.265Z,10.79
2022-12-31T21:16:47.232Z,10.75
2022-12-31T21:19:16.507Z,10.72
2022-12-31T21:21:43.309Z,10.68
2022-12-31T21:24:11.478Z,10.60
2022-12-31T21:26:39.866Z,10.57
2022-12-31T21:29:07.100Z,10.53
2022-12-31T21:31:36.491Z,10.47
2022-12-31T21:34:06.737Z,10.39
2022-12-31T21:36:33.660Z,10.35
2022-12-31T21:39:01.025Z,10.37
2022-12-31T21:41:46.667Z,10.38
2022-12-31T21:44:17.498Z,10.42
2022-12-31T21:47:15.762Z,10.42
2022-12-31T21:49:31.375Z,10.41
2022-12-31T21:52:16.931Z,10.28
2022-12-31T21:55:02.984Z,10.26
2022-12-31T21:57:29.864Z,10.26
2022-12-31T22:00:41.117Z,10.24
2022-12-31T22:03:29.773Z,10.17
2022-12-31T22:06:00.010Z,10.12
2022-12-31T22:08:32.622Z,10.11
2022-12-31T22:11:04.908Z,10.10
2022-12-31T22:13:35.279Z,10.02
2022-12-31T22:16:06.066Z,9.96
2022-12-31T22:18:35.538Z,9.94
2022-12-31T22:21:13.788Z,9.80
2022-12-31T22:23:46.098Z,9.76
2022-12-31T22:26:15.757Z,9.72
2022-12-31T22:28:44.038Z,9.67
2022-12-31T22:31:15.843Z,9.62
2022-12-31T22:33:43.149Z,9.61
2022-12-31T22:36:14.305Z,9.56
2022-12-31T22:38:43.584Z,9.53
2022-12-31T22:41:13.529Z,9.47
2022-12-31T22:43:48.295Z,9.57
2022-12-31T22:46:19.293Z,9.57
2022-12-31T22:48:49.459Z,9.58
2022-12-31T22:51:18.784Z,9.61
2022-12-31T22:53:48.512Z,9.57
2022-12-31T22:56:18.401Z,9.57
2022-12-31T22:58:52.152Z,9.59
2022-12-31T23:01:22.910Z,9.61
2022-12-31T23:03:54.449Z,9.63
2022-12-31T23:06:23.555Z,9.65
2022-12-31T23:09:11.551Z,9.65
2022-12-31T23:11:43.244Z,9.60
2022-12-31T23:14:35.936Z,9.53
2022-12-31T23:17:30.279Z,9.40
2022-12-31T23:20:17.465Z,9.34
2022-12-31T23:23:05.764Z,9.26
2022-12-31T23:25:33.357Z,9.10
2022-12-31T23:28:01.593Z,9.04
2022-12-31T23:30:34.572Z,9.00
2022-12-31T23:33:05.168Z,9.01
2022-12-31T23:35:32.032Z,9.01
2022-12-31T23:38:04.774Z,8.98
2022-12-31T23:40:34.473Z,8.99
2022-12-31T23:43:20.021Z,8.99
2022-12-31T23:45:47.872Z,8.81
2022-12-31T23:48:21.326Z,8.79
2022-12-31T23:50:52.951Z,8.75
2022-12-31T23:53:21.638Z,8.74
2022-12-31T23:55:48.522Z,8.71
2022-12-31T23:58:16.456Z,8.65
